Time;durP1;ratioP1;P1;durP2;ratioP2;P2;SDS_P1;SDS_P2;PMS_P1;PMS_P2;Temp;Humidity;BMP_temperature;BMP_pressure;BME280_temperature;BME280_humidity;BME280_pressure;Samples;Min_cycle;Max_cycle;Signal;HPM_P1;HPM_P2
2021/01/06 00:00:48;;;;;;;33.63;23.30;;;6.00;99.90;;;6.01;82.31;101732.25;5073007;28;20595;-73
2021/01/06 00:03:19;;;;;;;29.27;22.47;;;6.00;99.90;;;6.11;81.98;101726.41;5072871;28;20079;-73
2021/01/06 00:05:51;;;;;;;34.20;23.47;;;6.10;99.90;;;6.19;81.88;101740.59;5072893;28;20032;-73
2021/01/06 00:08:19;;;;;;;31.67;22.77;;;6.20;99.90;;;6.18;81.86;101738.84;5073113;28;20127;-73
2021/01/06 00:10:51;;;;;;;29.17;22.67;;;6.20;99.90;;;6.13;81.64;101742.19;5072776;28;20433;-73
2021/01/06 00:13:19;;;;;;;29.93;22.53;;;6.10;99.90;;;6.17;81.50;101731.84;5073036;28;20123;-73
2021/01/06 00:15:47;;;;;;;33.47;24.73;;;6.10;99.90;;;6.30;81.36;101740.91;5072947;28;20060;-73
2021/01/06 00:18:16;;;;;;;29.37;22.93;;;6.30;99.90;;;6.23;81.41;101736.34;5072825;28;20063;-74
2021/01/06 00:20:49;;;;;;;28.03;22.23;;;6.20;99.90;;;6.26;81.15;101726.81;5072625;28;20033;-73
2021/01/06 00:23:18;;;;;;;27.80;22.07;;;6.20;99.90;;;6.28;81.04;101734.72;5072493;28;20036;-73
2021/01/06 00:25:45;;;;;;;27.20;20.50;;;6.20;99.90;;;5.92;81.42;101723.22;5072504;28;20040;-73
2021/01/06 00:28:15;;;;;;;28.77;21.70;;;6.10;99.90;;;5.97;81.94;101734.72;5072895;28;20040;-73
2021/01/06 00:30:45;;;;;;;28.42;21.45;;;6.00;99.90;;;5.71;81.93;101686.72;5072727;28;20029;-73
2021/01/06 00:33:17;;;;;;;28.67;21.90;;;5.90;99.90;;;5.88;82.27;101718.75;5072742;28;20125;-72
2021/01/06 00:35:50;;;;;;;28.23;22.13;;;5.90;99.90;;;5.85;81.86;101726.50;5072696;28;20051;-73
2021/01/06 00:38:23;;;;;;;30.10;22.37;;;5.80;99.90;;;5.95;81.98;101720.66;5072428;28;20048;-73
2021/01/06 00:40:50;;;;;;;29.13;22.40;;;5.90;99.90;;;5.75;81.88;101695.59;5072375;28;20549;-73
2021/01/06 00:43:19;;;;;;;32.27;22.07;;;5.90;99.90;;;5.91;81.79;101727.59;5072229;28;20044;-73
2021/01/06 00:45:47;;;;;;;28.50;21.07;;;5.90;99.90;;;5.14;81.65;101593.25;5088028;28;20063;-73
2021/01/06 00:48:16;;;;;;;29.50;22.93;;;5.90;99.90;;;5.15;81.71;101600.28;5071174;28;20139;-73
2021/01/06 00:50:44;;;;;;;29.50;21.57;;;5.90;99.90;;;5.96;81.98;101725.09;5072397;28;20052;-73
2021/01/06 00:53:17;;;;;;;28.33;21.27;;;5.90;99.90;;;6.04;81.64;101724.44;5071134;28;20442;-74
2021/01/06 00:55:46;;;;;;;28.97;21.40;;;6.00;99.90;;;6.06;81.23;101721.84;5070837;28;20059;-73
2021/01/06 00:58:16;;;;;;;30.07;20.73;;;6.00;99.90;;;6.12;81.17;101722.91;5070639;28;20478;-73
2021/01/06 01:00:44;;;;;;;25.43;19.90;;;6.10;99.90;;;5.94;80.80;101700.53;5087849;28;20297;-73
2021/01/06 01:03:14;;;;;;;30.98;20.88;;;6.10;99.90;;;6.09;80.64;101712.34;5071012;28;20474;-73
2021/01/06 01:05:46;;;;;;;28.80;21.13;;;6.20;99.90;;;6.10;80.67;101719.34;5070994;28;20095;-73
2021/01/06 01:08:14;;;;;;;28.98;20.48;;;6.10;99.90;;;6.13;80.72;101715.94;5072346;28;20559;-73
2021/01/06 01:10:43;;;;;;;26.70;20.73;;;6.10;99.90;;;6.10;80.59;101722.00;5071949;28;20044;-73
2021/01/06 01:13:16;;;;;;;28.27;21.13;;;6.00;99.90;;;5.99;80.39;101699.81;5071944;28;20443;-73
2021/01/06 01:15:47;;;;;;;28.30;20.50;;;6.10;99.90;;;6.25;80.33;101737.28;5072228;28;20067;-73
2021/01/06 01:18:18;;;;;;;27.30;20.17;;;6.20;99.90;;;6.24;80.16;101724.97;5072218;28;20060;-73
2021/01/06 01:20:49;;;;;;;25.30;19.50;;;6.10;99.90;;;6.06;80.06;101696.50;5072019;28;20044;-74
2021/01/06 01:23:20;;;;;;;25.20;19.63;;;6.20;99.90;;;5.83;80.05;101655.59;5072135;28;20127;-73
2021/01/06 01:25:48;;;;;;;27.10;19.92;;;6.20;99.90;;;6.31;79.91;101727.81;5071882;28;20036;-73
2021/01/06 01:28:19;;;;;;;25.33;20.30;;;6.20;99.90;;;6.25;79.84;101735.53;5071770;28;20052;-73
2021/01/06 01:30:49;;;;;;;25.88;19.85;;;6.20;99.90;;;5.75;79.31;101701.69;5071861;28;20060;-73
2021/01/06 01:33:22;;;;;;;26.30;19.63;;;6.30;99.90;;;6.33;79.52;101728.75;5072093;28;20047;-72
2021/01/06 01:35:50;;;;;;;24.23;19.57;;;6.30;99.90;;;6.39;79.29;101731.53;5071805;28;20036;-74
2021/01/06 01:38:22;;;;;;;27.03;20.10;;;6.40;99.90;;;6.47;79.28;101734.34;5070390;28;20073;-73
2021/01/06 01:40:58;;;;;;;27.50;20.50;;;6.40;99.90;;;6.42;78.87;101733.34;5071698;28;20072;-74
2021/01/06 01:43:27;;;;;;;22.43;17.80;;;6.40;99.90;;;6.46;79.03;101734.31;5071400;28;20366;-73
2021/01/06 01:46:45;;;;;;;25.70;18.67;;;6.40;99.90;;;6.34;78.52;101735.78;5071855;28;20036;-73
2021/01/06 01:49:22;;;;;;;23.07;17.90;;;6.40;99.90;;;6.29;79.00;101737.38;5009780;28;20041;-73
2021/01/06 01:52:01;;;;;;;25.20;19.80;;;6.30;99.90;;;6.30;78.92;101736.56;5069093;28;20477;-73
2021/01/06 01:54:29;;;;;;;23.23;17.70;;;6.30;99.90;;;6.39;78.54;101731.53;5071677;28;20067;-73
2021/01/06 01:57:03;;;;;;;24.43;18.77;;;6.30;99.90;;;6.33;78.63;101733.09;5071643;28;20060;-73
2021/01/06 01:59:40;;;;;;;21.43;17.17;;;6.30;99.90;;;6.17;78.63;101728.31;5070385;28;20052;-73
2021/01/06 02:02:15;;;;;;;25.10;19.20;;;6.20;99.90;;;6.28;78.85;101729.47;5071676;28;20079;-73
2021/01/06 02:04:49;;;;;;;22.60;18.33;;;6.20;99.90;;;6.33;78.79;101733.09;5071628;28;20430;-73
2021/01/06 02:07:22;;;;;;;22.20;18.30;;;6.30;99.90;;;6.37;78.70;101750.72;5071765;28;20044;-73
2021/01/06 02:09:59;;;;;;;22.80;18.03;;;6.30;99.90;;;6.38;78.33;101732.41;5071452;28;20049;-72
2021/01/06 02:12:36;;;;;;;22.30;17.47;;;6.40;99.90;;;6.41;78.22;101723.69;5071425;28;20040;-73
2021/01/06 02:15:13;;;;;;;20.97;16.57;;;6.40;99.90;;;6.38;78.07;101731.50;5071392;28;20094;-74
2021/01/06 02:17:40;;;;;;;21.63;18.37;;;6.40;99.90;;;6.36;78.08;101723.59;5071403;28;20045;-73
2021/01/06 02:20:15;;;;;;;20.37;16.77;;;6.30;99.90;;;6.44;77.95;101725.50;5070265;28;20432;-73
2021/01/06 02:22:45;;;;;;;18.80;16.10;;;6.40;99.90;;;6.33;77.86;101725.22;5072450;28;20044;-73
2021/01/06 02:25:13;;;;;;;19.90;16.73;;;6.40;99.90;;;6.30;77.97;101733.03;5090744;28;20044;-73
2021/01/06 02:27:40;;;;;;;18.90;16.47;;;6.30;99.90;;;6.28;77.66;101734.72;5075129;28;20443;-74
2021/01/06 02:30:11;;;;;;;17.87;15.93;;;6.20;99.90;;;5.50;77.47;101584.69;5073678;28;20481;-73
2021/01/06 02:32:39;;;;;;;20.10;16.38;;;6.30;99.90;;;6.26;77.36;101716.31;5074814;28;20424;-74
2021/01/06 02:35:09;;;;;;;18.70;15.77;;;6.30;99.90;;;6.25;77.50;101722.38;5074882;28;20038;-74
2021/01/06 02:37:37;;;;;;;18.35;16.13;;;6.20;99.90;;;4.28;77.39;101371.53;5075114;28;20044;-73
2021/01/06 02:40:08;;;;;;;17.87;15.93;;;6.30;99.90;;;6.31;77.51;101734.78;5074579;28;20625;-74
2021/01/06 02:42:35;;;;;;;18.53;16.17;;;6.30;99.90;;;6.43;77.28;101722.00;5074793;28;20363;-73
2021/01/06 02:45:07;;;;;;;18.67;15.80;;;6.40;99.90;;;6.32;77.41;101721.72;5074489;28;20064;-73
2021/01/06 02:47:35;;;;;;;19.07;15.80;;;6.40;99.90;;;6.33;77.40;101731.38;5074475;28;20036;-73
2021/01/06 02:50:08;;;;;;;20.30;15.37;;;6.30;99.90;;;6.24;77.66;101717.09;5074646;28;20112;-73
2021/01/06 02:52:41;;;;;;;21.63;15.40;;;6.20;99.90;;;6.23;77.64;101725.84;5074446;28;20745;-73
2021/01/06 02:55:12;;;;;;;19.83;15.97;;;6.20;99.90;;;6.23;77.75;101720.59;5074358;28;20079;-74
2021/01/06 02:57:40;;;;;;;22.53;16.53;;;6.20;99.90;;;6.07;77.67;101697.38;5074496;28;20119;-73
2021/01/06 03:00:13;;;;;;;17.37;15.37;;;6.20;99.90;;;6.20;77.48;101723.13;5074522;28;20098;-74
2021/01/06 03:02:40;;;;;;;17.60;15.60;;;6.20;99.90;;;6.18;77.64;101723.09;5074949;28;20037;-74
2021/01/06 03:05:18;;;;;;;17.33;15.47;;;6.20;99.90;;;6.05;77.27;101697.34;5073398;28;20559;-72
2021/01/06 03:07:46;;;;;;;20.83;15.43;;;6.10;99.90;;;6.08;77.62;101728.03;5073216;28;20094;-74
2021/01/06 03:10:20;;;;;;;18.20;15.93;;;6.10;99.90;;;6.08;77.39;101726.31;5074320;28;20432;-73
2021/01/06 03:12:49;;;;;;;19.40;15.60;;;6.10;99.90;;;6.14;77.52;101721.22;5074011;28;20040;-74
2021/01/06 03:15:20;;;;;;;21.20;15.90;;;6.10;99.90;;;6.03;77.56;101696.41;5073958;28;20044;-73
2021/01/06 03:17:48;;;;;;;16.70;15.03;;;6.10;99.90;;;6.13;77.38;101718.56;5074212;28;20032;-73
2021/01/06 03:20:21;;;;;;;19.03;14.47;;;6.10;99.90;;;6.16;76.82;101721.25;5073830;28;20103;-73
2021/01/06 03:22:56;;;;;;;16.47;14.77;;;6.10;99.90;;;5.96;76.91;101686.56;5074023;28;20037;-73
2021/01/06 03:25:25;;;;;;;18.17;16.27;;;6.10;99.90;;;6.14;76.42;101715.06;5073758;28;20036;-73
2021/01/06 03:27:53;;;;;;;17.27;14.93;;;6.10;99.90;;;6.00;76.64;101722.56;5072531;28;20474;-73
2021/01/06 03:30:27;;;;;;;17.50;15.70;;;6.00;99.90;;;5.84;77.11;101709.88;5073925;28;20037;-73
2021/01/06 03:33:08;;;;;;;18.80;16.20;;;5.90;99.90;;;5.73;76.80;101700.78;5073355;28;20040;-72
2021/01/06 03:35:39;;;;;;;17.63;15.38;;;5.80;99.90;;;5.74;76.88;101714.78;5073844;28;20045;-73
2021/01/06 03:38:20;;;;;;;19.03;15.87;;;5.70;99.90;;;5.61;77.27;101710.03;5073550;28;20095;-74
2021/01/06 03:40:49;;;;;;;;;;;5.70;99.90;;;5.69;77.33;101708.53;5073898;28;20037;-73
2021/01/06 03:43:18;;;;;;;17.48;15.55;;;5.70;99.90;;;5.67;77.23;101704.97;5073543;28;20010;-73
2021/01/06 03:45:50;;;;;;;17.40;15.50;;;5.70;99.90;;;5.83;77.17;101708.09;5073375;28;20553;-73
2021/01/06 03:48:26;;;;;;;16.67;14.87;;;5.70;99.90;;;5.85;76.84;101710.75;5073183;28;20094;-74
2021/01/06 03:50:59;;;;;;;17.27;15.47;;;5.80;99.90;;;4.16;76.50;101394.72;5073236;28;20063;-73
2021/01/06 03:53:35;;;;;;;18.83;16.77;;;5.90;99.90;;;5.88;76.66;101705.59;5073479;28;20417;-73
2021/01/06 03:56:06;;;;;;;18.47;16.57;;;5.80;99.90;;;5.70;77.10;101674.44;5073216;28;20098;-73
2021/01/06 03:58:45;;;;;;;21.23;15.43;;;5.80;99.90;;;5.86;76.98;101702.06;5072958;28;20056;-73
2021/01/06 04:01:38;;;;;;;17.53;15.70;;;5.80;99.90;;;5.96;76.80;101704.09;5071984;28;20049;-73
2021/01/06 04:04:16;;;;;;;19.70;16.40;;;5.90;99.90;;;5.86;76.57;101697.69;5073112;28;20036;-74
2021/01/06 04:06:48;;;;;;;18.63;16.73;;;5.90;99.90;;;5.66;76.78;101675.22;5088771;28;20049;-73
2021/01/06 04:09:26;;;;;;;19.33;17.23;;;5.80;99.90;;;5.81;76.76;101678.25;5071782;28;20136;-73
2021/01/06 04:12:07;;;;;;;19.87;16.33;;;5.90;99.90;;;5.86;76.64;101687.19;5073126;28;20041;-73
2021/01/06 04:14:34;;;;;;;18.90;16.50;;;5.90;99.90;;;5.66;76.76;101659.47;5088649;28;20395;-73
2021/01/06 04:17:17;;;;;;;21.13;16.47;;;5.80;99.90;;;5.68;77.03;101686.63;5072682;28;20060;-74
2021/01/06 04:19:47;;;;;;;20.17;16.97;;;5.70;99.90;;;5.70;77.13;101690.19;5072708;28;20109;-73
2021/01/06 04:22:16;;;;;;;18.15;15.30;;;5.70;99.90;;;5.75;76.73;101688.56;5072647;28;20128;-73
2021/01/06 04:24:44;;;;;;;19.00;16.03;;;5.70;99.90;;;5.73;76.76;101678.91;5088344;28;20477;-73
2021/01/06 04:27:19;;;;;;;17.97;15.77;;;5.80;99.90;;;5.77;76.44;101681.63;5072787;28;20120;-74
2021/01/06 04:29:47;;;;;;;18.90;15.77;;;5.70;99.90;;;5.82;76.60;101680.03;5072828;28;20045;-73
2021/01/06 04:32:14;;;;;;;18.20;16.03;;;5.80;99.90;;;5.81;76.50;101687.84;5072734;28;20108;-73
2021/01/06 04:34:42;;;;;;;19.47;15.70;;;5.80;99.90;;;5.78;76.33;101679.91;5072705;28;20043;-74
2021/01/06 04:37:09;;;;;;;20.57;15.07;;;5.80;99.90;;;5.06;76.34;101587.78;5072432;28;20087;-73
2021/01/06 04:39:36;;;;;;;18.30;15.13;;;5.70;99.90;;;5.68;76.75;101686.63;5072569;28;20040;-73
2021/01/06 04:42:07;;;;;;;18.20;15.87;;;5.70;99.90;;;5.71;76.54;101678.84;5072380;28;20094;-73
2021/01/06 04:44:44;;;;;;;;;;;5.70;99.90;;;5.75;76.38;101682.47;5072774;28;20048;-73
2021/01/06 04:48:03;;;;;;;21.73;16.07;;;5.70;99.90;;;5.77;76.50;101686.88;5071283;28;19978;-73
2021/01/06 04:51:15;;;;;;;20.00;15.30;;;5.80;99.90;;;5.47;76.96;101671.19;5047400;28;20044;-73
2021/01/06 04:53:57;;;;;;;20.23;15.47;;;5.60;99.90;;;5.73;77.04;101684.16;5072273;28;20045;-73
2021/01/06 04:56:55;;;;;;;23.97;16.43;;;5.70;99.90;;;5.72;77.09;101678.00;5071075;28;20478;-73
2021/01/06 05:00:06;;;;;;;19.47;15.87;;;5.70;99.90;;;5.77;76.45;101670.28;5072013;28;20103;-73
2021/01/06 05:03:26;;;;;;;19.27;15.40;;;5.70;99.90;;;5.62;76.64;101661.94;5072621;28;20072;-73
2021/01/06 05:06:35;;;;;;;20.93;16.13;;;5.70;99.90;;;5.50;76.80;101657.25;5072062;28;20845;-70
2021/01/06 05:09:13;;;;;;;25.17;17.23;;;5.60;99.90;;;5.66;76.84;101674.31;5072083;28;20351;-72
2021/01/06 05:11:52;;;;;;;19.13;16.07;;;5.60;99.90;;;5.64;77.13;101681.25;5072335;28;20102;-71
2021/01/06 05:14:27;;;;;;;17.53;15.63;;;5.60;99.90;;;5.53;76.87;101660.84;5071988;28;20072;-71
2021/01/06 05:16:56;;;;;;;20.97;15.33;;;5.60;99.90;;;5.74;76.85;101680.66;5072031;28;20036;-70
2021/01/06 05:19:28;;;;;;;16.80;14.97;;;5.70;99.90;;;5.81;76.75;101685.22;5071898;28;20114;-72
2021/01/06 05:21:57;;;;;;;18.17;15.40;;;5.70;99.90;;;5.79;76.78;101676.47;5071918;28;20044;-73
2021/01/06 05:24:31;;;;;;;19.37;15.27;;;5.70;99.90;;;5.62;76.71;101678.59;5071761;28;20033;-73
2021/01/06 05:27:16;;;;;;;21.07;16.50;;;5.70;99.90;;;5.69;77.07;101685.78;5072173;28;20047;-74
2021/01/06 05:29:47;;;;;;;19.47;15.30;;;5.60;99.90;;;5.67;76.97;101679.59;5072146;28;20078;-75
2021/01/06 05:32:20;;;;;;;18.10;15.00;;;5.70;99.90;;;5.64;77.34;101681.25;5072189;28;20045;-74
2021/01/06 05:34:52;;;;;;;20.33;15.73;;;5.60;99.90;;;5.73;77.26;101678.91;5070514;28;20126;-74
2021/01/06 05:37:23;;;;;;;20.20;16.00;;;5.60;99.90;;;5.60;77.25;101679.38;5071917;28;20044;-74
2021/01/06 05:39:51;;;;;;;18.47;15.77;;;5.60;99.90;;;5.57;76.81;101679.31;5071653;28;20090;-73
2021/01/06 05:42:23;;;;;;;17.47;14.87;;;5.60;99.90;;;5.43;76.98;101653.56;5071833;28;20072;-74
2021/01/06 05:44:54;;;;;;;17.43;14.97;;;5.60;99.90;;;5.56;76.91;101673.16;5071840;28;20354;-74
2021/01/06 05:47:29;;;;;;;18.02;15.30;;;5.60;99.90;;;5.70;76.49;101673.56;5071958;28;20413;-74
2021/01/06 05:50:03;;;;;;;18.07;14.83;;;5.60;99.90;;;5.45;76.42;101651.00;5071609;28;20044;-74
2021/01/06 05:52:33;;;;;;;18.07;15.13;;;5.60;99.90;;;5.56;76.56;101678.41;5070544;28;20539;-74
2021/01/06 05:55:06;;;;;;;22.85;14.77;;;5.60;99.90;;;5.68;76.90;101678.75;5071815;28;20052;-74
2021/01/06 05:57:45;;;;;;;18.07;15.87;;;5.60;99.90;;;5.76;76.48;101673.72;5073952;28;20776;-74
2021/01/06 06:00:29;;;;;;;19.20;15.47;;;5.70;99.90;;;5.65;76.64;101676.06;5075286;28;20051;-74
2021/01/06 06:03:25;;;;;;;17.13;15.40;;;5.70;99.90;;;5.31;76.64;101633.97;5075223;28;20063;-74
2021/01/06 06:06:05;;;;;;;18.87;16.07;;;5.50;99.90;;;5.44;77.35;101668.44;5075195;28;20040;-74
2021/01/06 06:08:44;;;;;;;;;;;5.50;99.90;;;5.46;77.31;101681.59;5075474;28;20047;-74
2021/01/06 06:11:48;;;;;;;22.37;15.27;;;5.50;99.90;;;5.40;78.12;101678.84;5074083;28;20017;-74
2021/01/06 06:14:57;;;;;;;18.73;15.93;;;5.30;99.90;;;5.55;77.48;101687.16;5048210;28;20080;-74
2021/01/06 06:17:37;;;;;;;19.30;16.13;;;5.50;99.90;;;5.55;77.29;101694.13;5052805;28;20048;-74
2021/01/06 06:20:22;;;;;;;19.50;15.47;;;5.50;99.90;;;5.60;77.56;101688.16;5075320;28;20391;-75
2021/01/06 06:23:12;;;;;;;20.53;15.30;;;5.60;99.90;;;4.94;76.68;101557.69;5075287;28;20037;-74
2021/01/06 06:25:52;;;;;;;19.85;15.48;;;5.60;99.90;;;5.60;77.41;101682.91;5074151;28;20086;-75
2021/01/06 06:28:25;;;;;;;18.70;14.32;;;5.60;99.90;;;5.61;77.09;101687.31;5074850;28;20032;-74
2021/01/06 06:30:55;;;;;;;19.37;14.90;;;5.60;99.90;;;5.62;77.20;101686.47;5075174;28;20041;-74
2021/01/06 06:33:29;;;;;;;17.13;14.57;;;5.60;99.90;;;5.67;76.71;101687.47;5075059;28;20040;-74
2021/01/06 06:36:00;;;;;;;17.03;14.87;;;5.60;99.90;;;5.68;76.63;101685.75;5073560;28;20045;-73
2021/01/06 06:38:39;;;;;;;16.80;14.43;;;5.60;99.90;;;5.50;76.58;101655.50;5075212;28;20037;-74
2021/01/06 06:41:09;;;;;;;16.50;14.47;;;5.60;99.90;;;5.75;76.17;101696.44;5075179;28;20040;-74
2021/01/06 06:43:43;;;;;;;17.65;13.77;;;5.70;99.90;;;5.37;76.04;101623.66;5074837;28;20036;-75
2021/01/06 06:46:31;;;;;;;17.23;13.53;;;5.70;99.90;;;5.76;76.04;101699.97;5075063;28;20044;-74
2021/01/06 06:49:18;;;;;;;17.33;14.43;;;5.70;99.90;;;5.68;76.03;101691.00;5074492;28;20052;-73
2021/01/06 06:51:56;;;;;;;19.17;14.63;;;5.60;99.90;;;5.71;76.12;101694.59;5075024;28;20044;-75
2021/01/06 06:54:38;;;;;;;19.63;14.93;;;5.70;99.90;;;5.60;76.38;101698.66;5074378;28;20486;-73
2021/01/06 06:57:15;;;;;;;16.37;14.50;;;5.60;99.90;;;5.68;76.42;101702.38;5073100;28;20055;-74
2021/01/06 06:59:56;;;;;;;16.13;14.43;;;5.60;99.90;;;5.63;75.92;101698.75;5074579;28;20045;-74
2021/01/06 07:02:24;;;;;;;18.63;15.93;;;5.70;99.90;;;5.75;76.37;101700.84;5074498;28;20056;-74
2021/01/06 07:04:55;;;;;;;17.20;14.80;;;5.70;99.90;;;5.79;76.04;101706.19;5073041;28;20056;-74
2021/01/06 07:07:39;;;;;;;16.77;14.33;;;5.70;99.90;;;5.84;75.64;101714.25;5089480;28;20111;-74
2021/01/06 07:10:29;;;;;;;18.80;14.53;;;5.80;99.90;;;5.95;75.36;101705.81;5074022;28;20040;-74
2021/01/06 07:13:04;;;;;;;16.45;14.73;;;5.90;99.90;;;5.85;75.42;101701.16;5073854;28;20056;-74
2021/01/06 07:15:34;;;;;;;17.63;14.07;;;5.90;99.90;;;5.82;75.28;101713.28;5074029;28;20053;-74
2021/01/06 07:18:29;;;;;;;15.48;13.88;;;5.80;99.90;;;5.78;74.97;101712.31;5073926;28;20033;-73
2021/01/06 07:21:06;;;;;;;16.47;13.93;;;5.80;99.90;;;5.69;75.38;101709.41;5073770;28;20036;-72
2021/01/06 07:23:38;;;;;;;16.37;13.90;;;5.70;99.90;;;5.65;75.28;101712.81;5074178;28;20032;-74
2021/01/06 07:26:20;;;;;;;19.87;14.83;;;5.70;99.90;;;5.59;75.22;101710.00;5073706;28;20043;-73
2021/01/06 07:28:47;;;;;;;16.53;13.97;;;5.60;99.90;;;5.48;75.20;101706.16;5073610;28;20539;-73
2021/01/06 07:31:23;;;;;;;17.87;14.50;;;5.50;99.90;;;5.53;75.51;101715.06;5073851;28;20036;-74
2021/01/06 07:33:54;;;;;;;16.70;13.80;;;5.50;99.90;;;5.53;75.68;101712.44;5073514;28;20044;-74
2021/01/06 07:36:27;;;;;;;17.03;14.20;;;5.50;99.90;;;5.55;75.56;101713.38;5073601;28;20082;-74
2021/01/06 07:38:57;;;;;;;19.10;14.17;;;5.50;99.90;;;5.52;75.36;101710.66;5072413;28;20045;-74
2021/01/06 07:41:26;;;;;;;21.60;14.95;;;5.50;99.90;;;5.39;74.98;101682.28;5073661;28;20370;-74
2021/01/06 07:44:06;;;;;;;15.17;13.57;;;5.60;99.90;;;5.55;75.16;101718.63;5073550;28;20045;-74
2021/01/06 07:46:49;;;;;;;15.93;13.85;;;5.60;99.90;;;5.45;75.36;101708.69;5073353;28;20045;-73
2021/01/06 07:49:37;;;;;;;17.17;14.33;;;5.50;99.90;;;5.39;75.12;101691.06;5073203;28;20059;-74
2021/01/06 07:52:28;;;;;;;18.00;14.97;;;5.50;99.90;;;5.55;75.25;101718.63;5073509;28;20036;-74
2021/01/06 07:55:04;;;;;;;17.07;14.27;;;5.60;99.90;;;5.64;75.17;101720.63;5073116;28;20475;-74
2021/01/06 07:57:42;;;;;;;21.70;14.70;;;5.60;99.90;;;5.13;75.16;101631.69;5073356;28;20405;-74
2021/01/06 08:00:12;;;;;;;18.20;15.60;;;5.60;99.90;;;5.26;75.79;101717.78;5073033;28;20033;-74
2021/01/06 08:02:46;;;;;;;;;;;5.30;99.90;;;5.45;76.04;101733.22;5072463;28;20051;-74
2021/01/06 08:05:28;;;;;;;19.50;16.10;;;5.40;99.90;;;5.48;75.96;101729.75;5072974;28;19997;-74
2021/01/06 08:08:06;;;;;;;19.88;16.35;;;5.40;99.90;;;5.35;75.73;101718.03;5071904;28;20052;-74
2021/01/06 08:10:37;;;;;;;18.40;15.33;;;5.40;99.90;;;5.28;76.19;101725.69;5073200;28;20482;-73
2021/01/06 08:13:21;;;;;;;19.30;16.60;;;5.30;99.90;;;5.19;75.85;101731.50;5073152;28;20374;-74
2021/01/06 08:15:52;;;;;;;18.77;16.57;;;5.20;99.90;;;5.23;75.70;101740.34;5088570;28;20048;-74
2021/01/06 08:18:36;;;;;;;19.27;15.87;;;5.20;99.90;;;5.24;75.60;101743.06;5073038;28;20075;-75
2021/01/06 08:21:14;;;;;;;20.40;16.40;;;5.30;99.90;;;5.16;76.14;101738.41;5072141;28;20844;-75
2021/01/06 08:24:26;;;;;;;18.47;16.03;;;5.20;99.90;;;4.92;76.18;101724.50;5072794;28;20032;-75
2021/01/06 08:26:57;;;;;;;20.40;16.30;;;5.00;99.90;;;4.72;76.47;101743.94;5072946;28;20335;-74
2021/01/06 08:29:28;;;;;;;21.70;16.90;;;4.90;99.90;;;4.73;77.22;101745.72;5071513;28;20114;-74
2021/01/06 08:32:00;;;;;;;21.02;16.23;;;4.70;99.90;;;4.78;77.12;101747.66;5072569;28;20397;-74
2021/01/06 08:34:32;;;;;;;20.03;16.57;;;4.70;99.90;;;4.90;76.83;101752.41;5072475;28;20500;-74
2021/01/06 08:37:06;;;;;;;18.43;15.53;;;4.90;99.90;;;4.85;76.96;101747.03;5072603;28;20044;-74
2021/01/06 08:39:38;;;;;;;18.37;15.70;;;4.90;99.90;;;5.03;76.97;101744.09;5072709;28;20051;-75
2021/01/06 08:42:20;;;;;;;18.37;15.90;;;5.00;99.90;;;5.04;76.35;101749.38;5088309;28;20052;-75
2021/01/06 08:44:56;;;;;;;19.30;15.03;;;5.00;99.90;;;4.95;76.52;101725.53;5072604;28;20047;-75
2021/01/06 08:47:34;;;;;;;19.00;15.87;;;5.10;99.90;;;5.12;76.46;101758.41;5072250;28;20032;-75
2021/01/06 08:50:32;;;;;;;19.23;15.30;;;5.10;99.90;;;5.18;76.07;101749.81;5072577;28;20086;-75
2021/01/06 08:53:02;;;;;;;18.20;16.30;;;5.10;99.90;;;5.14;76.04;101745.31;5072247;28;20048;-73
2021/01/06 08:55:33;;;;;;;21.63;16.17;;;5.20;99.90;;;5.14;75.89;101745.31;5072443;28;20044;-75
2021/01/06 08:58:03;;;;;;;;;;;5.20;99.90;;;5.24;76.37;101753.53;5071029;28;20056;-75
2021/01/06 09:00:35;;;;;;;;;;;5.20;99.90;;;5.29;75.93;101753.66;5073088;28;19920;-74
2021/01/06 09:03:18;;;;;;;20.03;15.30;;;5.30;99.90;;;5.29;75.70;101756.28;5072069;28;19920;-74
2021/01/06 09:06:06;;;;;;;20.13;16.03;;;5.30;99.90;;;4.86;76.38;101748.78;5072243;28;20051;-75
2021/01/06 09:08:46;;;;;;;20.87;16.50;;;5.00;99.90;;;5.09;76.36;101737.31;5070930;28;20107;-74
2021/01/06 09:11:20;;;;;;;18.05;14.57;;;5.10;99.90;;;5.33;75.94;101758.16;5071966;28;20052;-74
2021/01/06 09:13:58;;;;;;;20.10;16.10;;;5.20;99.90;;;5.40;75.53;101739.16;5072180;28;20056;-74
2021/01/06 09:16:35;;;;;;;18.60;14.37;;;5.30;99.90;;;5.47;75.22;101755.13;5072114;28;20377;-75
2021/01/06 09:19:09;;;;;;;18.17;15.37;;;5.40;99.90;;;5.57;75.20;101753.69;5071948;28;20630;-74
2021/01/06 09:21:38;;;;;;;18.47;15.00;;;5.50;99.90;;;5.53;75.20;101748.28;5072162;28;20044;-74
2021/01/06 09:24:12;;;;;;;17.73;14.67;;;5.50;99.90;;;5.66;74.95;101753.03;5072011;28;20125;-74
2021/01/06 09:26:43;;;;;;;18.43;15.27;;;5.60;99.90;;;5.64;74.35;101753.00;5072066;28;20115;-74
2021/01/06 09:29:17;;;;;;;16.80;14.73;;;5.60;99.90;;;5.60;74.13;101735.38;5071798;28;20041;-74
2021/01/06 09:31:50;;;;;;;17.03;14.43;;;5.60;99.90;;;5.68;74.13;101749.63;5074537;28;20095;-74
2021/01/06 09:34:22;;;;;;;20.27;14.83;;;5.70;99.90;;;5.79;74.26;101755.19;5076022;28;20040;-74
2021/01/06 09:36:50;;;;;;;19.03;15.10;;;5.70;99.90;;;5.89;73.98;101750.28;5075117;28;20059;-73
2021/01/06 09:39:22;;;;;;;18.17;14.63;;;5.80;99.90;;;5.82;73.69;101761.44;5075730;28;20032;-74
2021/01/06 09:41:52;;;;;;;20.50;14.40;;;5.80;99.90;;;5.87;73.86;101754.59;5076028;28;20056;-73
2021/01/06 09:44:20;;;;;;;16.57;14.73;;;5.80;99.90;;;5.98;73.58;101752.28;5075829;28;20055;-74
2021/01/06 09:46:55;;;;;;;17.97;14.73;;;5.90;99.90;;;6.12;73.33;101751.81;5075505;28;20051;-74
2021/01/06 09:49:28;;;;;;;17.93;14.83;;;6.00;99.90;;;6.20;73.37;101752.91;5074211;28;20497;-74
2021/01/06 09:52:03;;;;;;;17.87;14.30;;;6.10;99.90;;;5.74;72.74;101743.66;5075843;28;20059;-74
2021/01/06 09:54:32;;;;;;;16.07;14.17;;;6.00;99.90;;;5.79;73.40;101727.19;5075456;28;20041;-74
2021/01/06 09:57:01;;;;;;;16.80;14.77;;;5.90;99.90;;;6.05;73.53;101741.09;5075205;28;20116;-74
2021/01/06 09:59:33;;;;;;;18.33;15.43;;;6.00;99.90;;;6.13;72.92;101752.72;5075478;28;20098;-74
2021/01/06 10:02:05;;;;;;;20.17;14.67;;;6.10;99.90;;;6.13;72.81;101740.47;5075324;28;20044;-73
2021/01/06 10:04:39;;;;;;;15.80;13.83;;;6.10;99.90;;;5.48;72.56;101643.19;5075378;28;20048;-73
2021/01/06 10:07:25;;;;;;;16.57;14.47;;;6.10;99.90;;;5.91;72.73;101717.09;5075195;28;20059;-74
2021/01/06 10:09:59;;;;;;;15.93;14.17;;;6.00;99.90;;;6.10;73.05;101743.00;5075164;28;20033;-74
2021/01/06 10:12:59;;;;;;;16.73;14.00;;;6.10;99.90;;;6.13;72.86;101742.19;5075117;28;20044;-74
2021/01/06 10:15:55;;;;;;;16.92;14.13;;;6.00;99.90;;;6.23;72.87;101744.22;5075046;28;20050;-74
2021/01/06 10:18:42;;;;;;;17.03;14.87;;;6.10;99.90;;;6.23;72.66;101734.59;5075172;28;20473;-74
2021/01/06 10:21:19;;;;;;;16.10;14.33;;;6.20;99.90;;;6.38;72.51;101742.00;5074843;28;20064;-74
2021/01/06 10:24:05;;;;;;;18.07;15.10;;;6.30;99.90;;;6.42;72.23;101742.97;5074857;28;20036;-74
2021/01/06 10:26:49;;;;;;;18.37;14.17;;;6.40;99.90;;;6.50;72.17;101737.09;5074899;28;20124;-74
2021/01/06 10:29:22;;;;;;;17.70;14.57;;;6.50;99.90;;;6.46;71.83;101729.06;5074887;28;20056;-74
2021/01/06 10:32:20;;;;;;;18.17;15.60;;;6.40;99.90;;;6.50;72.00;101730.94;5074608;28;20045;-74
2021/01/06 10:34:51;;;;;;;17.27;14.40;;;6.50;99.90;;;6.56;72.13;101733.72;5074590;28;20393;-73
2021/01/06 10:37:24;;;;;;;;;;;6.50;99.90;;;6.65;71.45;101731.31;5073735;28;20139;-74
2021/01/06 10:39:54;;;;;;;17.63;15.30;;;6.60;99.90;;;6.69;71.64;101733.16;5073303;28;19916;-74
2021/01/06 10:42:33;;;;;;;17.70;14.52;;;6.70;99.90;;;6.81;71.61;101720.34;5073742;28;20037;-74
2021/01/06 10:45:12;;;;;;;20.23;14.97;;;6.70;99.90;;;6.63;71.12;101702.38;5073270;28;20486;-73
2021/01/06 10:47:49;;;;;;;15.80;14.07;;;6.70;99.90;;;6.55;71.00;101693.41;5074398;28;20048;-75
2021/01/06 10:50:45;;;;;;;15.93;14.23;;;6.60;99.90;;;6.88;71.27;101717.88;5074772;28;20044;-73